Time;durP1;ratioP1;P1;durP2;ratioP2;P2;SDS_P1;SDS_P2;PMS_P1;PMS_P2;Temp;Humidity;BMP_temperature;BMP_pressure;BME280_temperature;BME280_humidity;BME280_pressure;Samples;Min_cycle;Max_cycle;Signal;HPM_P1;HPM_P2
2024/01/22 00:00:08;;;;;;;5.28;2.60;;;;;;;-4.17;75.03;96774.53;2066743;28;20050;-57
2024/01/22 00:01:14;;;;;;;6.57;2.88;;;;;;;-4.15;75.06;96779.63;2066871;28;20049;-57
2024/01/22 00:02:15;;;;;;;6.13;2.90;;;;;;;-4.05;74.85;96779.03;2066782;28;20077;-56
2024/01/22 00:03:17;;;;;;;5.88;2.88;;;;;;;-4.11;74.15;96779.75;2066044;28;20054;-56
2024/01/22 00:04:18;;;;;;;6.00;2.92;;;;;;;-4.14;74.42;96774.59;2066791;28;20497;-57
2024/01/22 00:05:19;;;;;;;6.63;3.22;;;;;;;-4.18;74.78;96784.66;2058085;28;20043;-56
2024/01/22 00:06:20;;;;;;;5.38;3.08;;;;;;;-4.24;75.26;96776.06;2058142;28;20034;-55
2024/01/22 00:07:21;;;;;;;8.30;2.97;;;;;;;-4.19;74.71;96777.88;2066843;28;20493;-55
2024/01/22 00:08:23;;;;;;;7.20;3.25;;;;;;;-4.21;74.57;96773.59;2066562;28;20057;-55
2024/01/22 00:09:24;;;;;;;5.78;3.13;;;;;;;-4.21;75.01;96775.28;2066615;28;20070;-56
2024/01/22 00:10:25;;;;;;;8.43;3.22;;;;;;;-4.14;74.80;96776.25;2066637;28;20489;-56
2024/01/22 00:11:26;;;;;;;6.85;2.92;;;;;;;-4.15;74.57;96770.34;2066544;28;20048;-56
2024/01/22 00:12:27;;;;;;;7.72;3.70;;;;;;;-4.09;74.62;96769.63;2066491;28;20055;-55
2024/01/22 00:13:28;;;;;;;7.13;3.33;;;;;;;-4.01;73.48;96766.44;2066396;28;20038;-56
2024/01/22 00:14:29;;;;;;;6.22;3.00;;;;;;;-3.94;73.18;96762.34;2066707;28;20042;-56
2024/01/22 00:15:31;;;;;;;7.68;3.13;;;;;;;-3.91;73.30;96764.09;2066666;28;20054;-56
2024/01/22 00:16:32;;;;;;;7.28;3.42;;;;;;;-3.93;73.39;96764.06;2066789;28;20445;-56
2024/01/22 00:17:33;;;;;;;7.22;3.30;;;;;;;-3.83;72.84;96763.41;2049903;29;20047;-56
2024/01/22 00:18:35;;;;;;;8.93;3.40;;;;;;;-3.89;72.64;96765.84;2050020;28;20047;-56
2024/01/22 00:19:37;;;;;;;6.88;3.40;;;;;;;-3.92;72.98;96768.31;2057640;28;20516;-56
2024/01/22 00:20:38;;;;;;;6.88;2.88;;;;;;;-3.96;73.25;96766.53;2058105;28;20049;-55
2024/01/22 00:21:42;;;;;;;7.55;3.05;;;;;;;-3.92;73.05;96753.09;2057423;28;20055;-56
2024/01/22 00:22:44;;;;;;;10.43;3.55;;;;;;;-3.83;72.60;96768.50;2058265;28;20043;-56
2024/01/22 00:23:45;;;;;;;7.53;3.25;;;;;;;-3.89;72.58;96762.44;2066523;28;20043;-56
2024/01/22 00:24:46;;;;;;;7.38;3.60;;;;;;;-3.98;73.07;96765.66;2066427;28;20049;-55
2024/01/22 00:25:47;;;;;;;10.02;3.78;;;;;;;-4.02;73.20;96762.16;2066533;28;20072;-55
2024/01/22 00:26:48;;;;;;;7.15;2.85;;;;;;;-4.01;73.09;96765.56;2066359;28;20046;-56
2024/01/22 00:27:49;;;;;;;8.75;3.65;;;;;;;-4.02;73.35;96762.16;2065888;28;20058;-56
2024/01/22 00:28:50;;;;;;;8.50;3.50;;;;;;;-4.01;73.07;96766.44;2065162;28;20347;-56
2024/01/22 00:29:51;;;;;;;6.68;3.17;;;;;;;-3.95;72.56;96760.63;2065197;28;20065;-56
2024/01/22 00:30:52;;;;;;;7.35;3.40;;;;;;;-4.00;72.33;96764.75;2066430;28;20062;-56
2024/01/22 00:31:53;;;;;;;8.48;3.20;;;;;;;-3.97;72.86;96756.34;2066477;28;20398;-56
2024/01/22 00:32:55;;;;;;;7.28;2.85;;;;;;;-3.93;71.82;96751.38;2066597;28;20054;-55
2024/01/22 00:33:56;;;;;;;6.78;2.95;;;;;;;-3.97;72.25;96754.66;2066314;28;20399;-55
2024/01/22 00:34:57;;;;;;;6.05;2.97;;;;;;;-4.05;72.34;96748.56;2066473;28;20058;-56
2024/01/22 00:35:59;;;;;;;6.35;2.72;;;;;;;-3.99;72.13;96751.22;2065756;28;20058;-56
2024/01/22 00:37:00;;;;;;;7.70;3.03;;;;;;;-4.04;72.06;96753.66;2066488;28;20047;-56
2024/01/22 00:38:01;;;;;;;7.10;2.70;;;;;;;-4.07;72.36;96755.28;2057573;28;20050;-56
2024/01/22 00:39:02;;;;;;;4.50;2.45;;;;;;;-4.04;72.58;96748.59;2057786;28;20050;-56
2024/01/22 00:40:04;;;;;;;7.07;3.08;;;;;;;-4.05;71.96;96759.56;2066510;28;20065;-57
2024/01/22 00:41:05;;;;;;;8.63;3.22;;;;;;;-4.05;72.52;96757.03;2066278;28;20505;-55
2024/01/22 00:42:06;;;;;;;5.97;2.42;;;;;;;-4.06;72.15;96755.34;2066415;28;20053;-55
2024/01/22 00:43:07;;;;;;;4.80;2.15;;;;;;;-3.95;71.73;96757.25;2066353;28;20068;-55
2024/01/22 00:44:08;;;;;;;5.80;2.55;;;;;;;-3.96;71.65;96751.28;2066297;28;20053;-56
2024/01/22 00:45:09;;;;;;;6.68;2.65;;;;;;;-3.97;71.85;96754.66;2066335;28;20047;-55
2024/01/22 00:46:10;;;;;;;7.18;3.00;;;;;;;-4.00;71.54;96757.16;2066278;28;20042;-56
2024/01/22 00:47:12;;;;;;;6.05;3.10;;;;;;;-4.10;72.43;96745.06;2066465;28;20042;-55
2024/01/22 00:48:13;;;;;;;6.55;2.72;;;;;;;-4.07;72.15;96750.22;2066500;28;20049;-56
2024/01/22 00:49:14;;;;;;;5.50;2.63;;;;;;;-4.09;72.35;96746.78;2065740;28;20081;-56
2024/01/22 00:50:15;;;;;;;8.10;2.53;;;;;;;-4.11;72.39;96743.38;2065927;28;20058;-56
2024/01/22 00:51:16;;;;;;;6.60;3.00;;;;;;;-4.13;72.54;96747.56;2066299;28;20042;-56
2024/01/22 00:52:18;;;;;;;4.65;2.00;;;;;;;-4.15;72.25;96741.59;2066247;28;20398;-56
2024/01/22 00:53:19;;;;;;;5.85;2.65;;;;;;;-4.17;72.53;96739.03;2066189;28;20046;-55
2024/01/22 00:54:20;;;;;;;4.72;2.00;;;;;;;-4.18;72.87;96739.00;2066434;28;20049;-55
2024/01/22 00:55:21;;;;;;;5.25;2.50;;;;;;;-4.24;73.08;96735.50;2065908;28;20410;-55
2024/01/22 00:56:23;;;;;;;5.88;2.60;;;;;;;-4.29;73.21;96734.53;2066396;28;20050;-56
2024/01/22 00:57:24;;;;;;;5.80;2.20;;;;;;;-4.29;73.42;96742.13;2066282;28;20390;-55
2024/01/22 00:58:25;;;;;;;6.20;2.42;;;;;;;-4.29;73.27;96733.69;2066221;28;20039;-57
2024/01/22 00:59:26;;;;;;;5.57;2.53;;;;;;;-4.29;73.29;96737.06;2066003;28;20050;-57
2024/01/22 01:00:27;;;;;;;5.80;2.60;;;;;;;-4.31;73.25;96733.63;2066189;28;20050;-56
2024/01/22 01:01:31;;;;;;;5.90;2.60;;;;;;;-4.36;73.67;96726.75;2065513;28;20054;-55
2024/01/22 01:02:32;;;;;;;5.40;2.35;;;;;;;-4.33;73.76;96727.69;2066287;28;20046;-56
2024/01/22 01:03:34;;;;;;;5.45;2.45;;;;;;;-4.35;73.50;96724.25;2066173;28;20045;-55
2024/01/22 01:04:35;;;;;;;6.07;2.80;;;;;;;-4.33;73.54;96722.63;2065510;28;20470;-56
2024/01/22 01:05:36;;;;;;;6.45;2.33;;;;;;;-4.39;73.93;96722.47;2066203;28;20050;-55
2024/01/22 01:06:37;;;;;;;3.38;1.50;;;;;;;-4.32;73.65;96721.78;2065921;28;20050;-56
2024/01/22 01:07:38;;;;;;;7.70;2.10;;;;;;;-4.30;73.38;96722.69;2057465;28;20047;-56
2024/01/22 01:08:39;;;;;;;3.28;1.80;;;;;;;-4.27;73.32;96715.13;2057531;28;20042;-57
2024/01/22 01:09:40;;;;;;;6.55;2.53;;;;;;;-4.29;73.43;96711.69;2066255;28;20038;-56
2024/01/22 01:10:42;;;;;;;4.47;2.15;;;;;;;-4.29;73.43;96710.84;2066229;28;20058;-57
2024/01/22 01:11:43;;;;;;;4.53;2.22;;;;;;;-4.30;73.81;96710.00;2066069;28;20041;-55
2024/01/22 01:12:44;;;;;;;6.50;2.33;;;;;;;-4.33;73.90;96709.06;2065515;28;20073;-57
2024/01/22 01:13:45;;;;;;;4.75;2.42;;;;;;;-4.30;73.85;96699.00;2066123;28;20065;-56
2024/01/22 01:14:46;;;;;;;5.82;2.15;;;;;;;-4.25;73.52;96700.81;2065542;28;20069;-55
2024/01/22 01:15:47;;;;;;;5.45;2.35;;;;;;;-4.22;73.30;96703.41;2065778;28;20080;-56
2024/01/22 01:16:48;;;;;;;5.75;2.65;;;;;;;-4.31;73.20;96700.66;2066190;28;20068;-57
2024/01/22 01:17:49;;;;;;;6.10;2.72;;;;;;;-4.36;73.58;96701.38;2065494;28;20058;-55
2024/01/22 01:18:50;;;;;;;5.75;2.13;;;;;;;-4.43;74.09;96703.78;2066042;28;20054;-55
2024/01/22 01:19:52;;;;;;;5.97;2.42;;;;;;;-4.45;74.11;96707.13;2066057;28;20399;-55
2024/01/22 01:20:53;;;;;;;5.05;2.50;;;;;;;-4.51;74.43;96709.53;2065450;28;20069;-55
2024/01/22 01:21:54;;;;;;;4.82;2.38;;;;;;;-4.57;74.75;96712.78;2065611;28;20062;-56
2024/01/22 01:22:55;;;;;;;4.70;2.40;;;;;;;-4.63;74.77;96714.31;2066206;28;20086;-57
2024/01/22 01:23:56;;;;;;;6.15;2.28;;;;;;;-4.69;75.19;96715.88;2066420;28;20058;-56
2024/01/22 01:24:57;;;;;;;6.75;2.40;;;;;;;-4.71;75.47;96714.13;2066166;28;20049;-56
2024/01/22 01:25:59;;;;;;;4.35;1.80;;;;;;;-4.75;75.60;96714.88;2065367;28;20406;-56
2024/01/22 01:27:01;;;;;;;4.32;1.88;;;;;;;-4.76;75.52;96708.09;2065946;28;20050;-55
2024/01/22 01:28:02;;;;;;;5.20;2.20;;;;;;;-4.79;76.01;96713.94;2066070;28;20042;-55
2024/01/22 01:29:03;;;;;;;4.43;2.22;;;;;;;-4.79;75.64;96718.16;2065948;28;20058;-56
2024/01/22 01:30:04;;;;;;;5.47;2.25;;;;;;;-4.83;76.15;96717.22;2065358;28;20479;-56
2024/01/22 01:31:05;;;;;;;4.38;1.85;;;;;;;-4.87;76.18;96715.44;2066113;28;20038;-56
2024/01/22 01:32:06;;;;;;;4.22;2.00;;;;;;;-4.93;76.57;96711.06;2057038;28;20055;-56
2024/01/22 01:33:07;;;;;;;7.25;2.40;;;;;;;-4.94;76.90;96713.59;2057380;28;20043;-57
2024/01/22 01:34:09;;;;;;;10.45;2.40;;;;;;;-4.99;77.07;96710.09;2065923;28;20042;-55
2024/01/22 01:35:10;;;;;;;6.05;2.47;;;;;;;-5.00;77.34;96698.22;2065620;28;20050;-56
2024/01/22 01:36:11;;;;;;;6.13;2.10;;;;;;;-5.06;77.66;96705.69;2065604;28;20415;-55
2024/01/22 01:37:12;;;;;;;4.80;2.17;;;;;;;-5.14;78.02;96706.34;2065134;28;20054;-57
2024/01/22 01:38:13;;;;;;;5.80;2.45;;;;;;;-5.19;78.47;96695.22;2065969;28;20050;-56
2024/01/22 01:39:14;;;;;;;6.38;2.58;;;;;;;-5.25;78.83;96691.69;2065599;28;20058;-56
2024/01/22 01:40:15;;;;;;;4.57;2.03;;;;;;;-5.29;78.69;96688.25;2065177;28;20058;-55
2024/01/22 01:41:17;;;;;;;4.97;2.15;;;;;;;-5.31;79.13;96692.41;2064847;28;20061;-56
2024/01/22 01:42:18;;;;;;;5.40;2.33;;;;;;;-5.35;79.33;96693.13;2065664;28;20057;-56
2024/01/22 01:43:19;;;;;;;4.25;2.33;;;;;;;-5.39;79.57;96696.41;2065507;28;20406;-55
2024/01/22 01:44:20;;;;;;;7.05;2.20;;;;;;;-5.44;79.74;96700.50;2065935;28;20405;-55
2024/01/22 01:45:21;;;;;;;3.42;1.90;;;;;;;-5.48;80.23;96698.69;2066021;28;20038;-56
2024/01/22 01:46:22;;;;;;;4.25;1.92;;;;;;;-5.46;80.29;96697.06;2065543;28;20050;-55
2024/01/22 01:47:23;;;;;;;5.82;2.22;;;;;;;-5.52;80.22;96691.84;2065260;28;20054;-56
2024/01/22 01:48:25;;;;;;;5.00;2.10;;;;;;;-5.55;80.68;96688.41;2065937;28;20046;-55
2024/01/22 01:49:26;;;;;;;3.53;1.55;;;;;;;-5.56;80.66;96689.25;2065867;28;20043;-56
2024/01/22 01:50:27;;;;;;;4.60;1.48;;;;;;;-5.52;80.64;96684.25;2065854;28;20045;-55
2024/01/22 01:51:28;;;;;;;4.85;2.17;;;;;;;-5.55;80.38;96690.09;2065822;28;20406;-56
2024/01/22 01:52:29;;;;;;;5.32;2.30;;;;;;;-5.55;80.44;96682.50;2065793;28;20050;-55
2024/01/22 01:53:30;;;;;;;4.38;1.67;;;;;;;-5.56;80.69;96684.19;2065285;28;20053;-55
2024/01/22 01:54:31;;;;;;;3.80;1.50;;;;;;;-5.56;80.49;96688.38;2065108;28;20402;-56
2024/01/22 01:55:33;;;;;;;5.90;2.17;;;;;;;-5.58;80.55;96677.38;2065963;28;20046;-56
2024/01/22 01:56:34;;;;;;;3.15;1.38;;;;;;;-5.54;80.94;96679.16;2056914;28;20066;-56
2024/01/22 01:57:39;;;;;;;3.50;1.70;;;;;;;-5.42;80.39;96678.63;2057564;28;20053;-55
2024/01/22 01:58:40;;;;;;;4.32;2.00;;;;;;;-5.39;80.22;96673.63;2064665;28;20054;-55
2024/01/22 01:59:41;;;;;;;4.35;1.85;;;;;;;-5.36;79.71;96666.09;2065304;28;20057;-56
2024/01/22 02:00:43;;;;;;;3.95;1.73;;;;;;;-5.33;79.98;96669.56;2065905;28;20042;-56
2024/01/22 02:01:44;;;;;;;2.83;1.50;;;;;;;-5.29;79.85;96668.00;2049089;29;20055;-58
2024/01/22 02:02:45;;;;;;;5.18;1.95;;;;;;;-5.30;79.79;96668.78;2049305;28;20416;-56
2024/01/22 02:03:46;;;;;;;4.63;1.67;;;;;;;-5.31;79.79;96667.09;2065732;28;20050;-57
2024/01/22 02:04:47;;;;;;;7.13;2.10;;;;;;;-5.28;79.87;96664.63;2065661;28;20042;-55
2024/01/22 02:05:49;;;;;;;1.92;1.02;;;;;;;-5.19;79.75;96667.38;2065715;28;20588;-56
2024/01/22 02:06:50;;;;;;;4.47;1.90;;;;;;;-5.17;79.39;96664.88;2048906;29;20051;-56
2024/01/22 02:07:51;;;;;;;3.95;1.50;;;;;;;-5.11;79.34;96654.91;2048632;29;20055;-56
2024/01/22 02:08:52;;;;;;;5.28;1.50;;;;;;;-5.17;79.40;96644.63;2065049;28;20054;-56
2024/01/22 02:09:53;;;;;;;3.15;1.70;;;;;;;-5.16;79.31;96647.22;2065901;28;20042;-56
2024/01/22 02:10:55;;;;;;;3.58;1.75;;;;;;;-5.19;79.13;96648.78;2065068;28;20061;-57
2024/01/22 02:11:56;;;;;;;3.40;1.40;;;;;;;-5.20;79.44;96649.63;2065659;28;20050;-56
2024/01/22 02:12:57;;;;;;;2.90;1.42;;;;;;;-5.23;79.48;96645.34;2065748;28;20058;-55
2024/01/22 02:13:58;;;;;;;4.25;1.65;;;;;;;-5.21;79.57;96642.81;2065544;28;20053;-55
2024/01/22 02:14:59;;;;;;;3.80;1.52;;;;;;;-5.20;79.31;96649.63;2056794;28;20058;-56
2024/01/22 02:16:01;;;;;;;4.60;1.80;;;;;;;-5.23;79.67;96640.28;2057094;28;20097;-55
2024/01/22 02:17:02;;;;;;;1.23;0.63;;;;;;;-5.25;79.35;96638.53;2065627;28;20050;-56
2024/01/22 02:18:03;;;;;;;3.22;1.45;;;;;;;-5.25;79.61;96634.31;2065756;28;20042;-57
2024/01/22 02:19:04;;;;;;;6.60;1.98;;;;;;;-5.26;79.71;96642.75;2065740;28;20043;-57
2024/01/22 02:20:07;;;;;;;3.95;1.65;;;;;;;-5.22;79.40;96639.44;2065356;28;20057;-56
2024/01/22 02:21:08;;;;;;;4.40;1.90;;;;;;;-5.18;79.08;96637.88;2065573;28;20408;-56
2024/01/22 02:22:10;;;;;;;4.00;1.52;;;;;;;-5.20;79.17;96630.22;2065652;28;20049;-56
2024/01/22 02:23:11;;;;;;;2.63;1.25;;;;;;;-5.15;78.98;96632.88;2065229;28;20050;-56
2024/01/22 02:24:12;;;;;;;2.92;1.27;;;;;;;-5.14;78.88;96625.28;2064752;28;20485;-56
2024/01/22 02:25:14;;;;;;;3.72;1.38;;;;;;;-5.10;78.63;96626.25;2065099;28;20050;-56
2024/01/22 02:26:15;;;;;;;3.45;1.77;;;;;;;-5.04;78.04;96628.91;2064641;28;20057;-56
2024/01/22 02:27:17;;;;;;;4.45;1.50;;;;;;;-5.00;77.98;96624.75;2064681;28;20061;-56
2024/01/22 02:28:18;;;;;;;4.80;1.60;;;;;;;-5.05;77.98;96621.25;2065796;28;20386;-56
2024/01/22 02:29:19;;;;;;;5.30;1.98;;;;;;;-5.08;78.11;96624.56;2065777;28;20045;-57
2024/01/22 02:30:20;;;;;;;5.15;1.73;;;;;;;-5.08;78.33;96623.72;2065139;28;20046;-56
2024/01/22 02:31:21;;;;;;;4.60;1.77;;;;;;;-5.10;78.27;96619.50;2065574;28;20042;-56
2024/01/22 02:32:22;;;;;;;4.43;1.80;;;;;;;-5.11;78.10;96616.91;2065162;28;20053;-56
2024/01/22 02:33:24;;;;;;;2.13;1.15;;;;;;;-5.11;78.17;96615.22;2065387;28;20077;-56
2024/01/22 02:34:25;;;;;;;5.40;1.80;;;;;;;-5.06;78.16;96611.97;2065686;28;20053;-56
2024/01/22 02:35:26;;;;;;;5.50;1.77;;;;;;;-5.00;77.79;96607.03;2065842;28;20057;-57
2024/01/22 02:36:27;;;;;;;5.50;1.70;;;;;;;-4.93;77.42;96603.81;2065865;28;20034;-55
2024/01/22 02:37:28;;;;;;;2.40;1.20;;;;;;;-4.87;77.02;96603.94;2065533;28;20069;-59
2024/01/22 02:38:29;;;;;;;4.07;1.35;;;;;;;-4.82;76.73;96599.00;2065517;28;20037;-56
2024/01/22 02:39:31;;;;;;;3.35;1.85;;;;;;;-4.82;76.56;96597.31;2065467;28;20054;-55
2024/01/22 02:40:32;;;;;;;4.10;1.63;;;;;;;-4.75;76.16;96595.78;2065846;28;20043;-56
2024/01/22 02:41:33;;;;;;;3.10;1.73;;;;;;;-4.75;76.24;96596.63;2065185;28;20046;-54
2024/01/22 02:42:34;;;;;;;3.13;0.98;;;;;;;-4.64;75.89;96598.53;2065249;28;20062;-57
2024/01/22 02:43:35;;;;;;;1.08;0.57;;;;;;;-4.66;75.48;96591.75;2065579;28;20038;-54
2024/01/22 02:44:36;;;;;;;2.72;1.20;;;;;;;-4.63;75.32;96593.50;2064768;28;20383;-57
2024/01/22 02:45:37;;;;;;;2.17;1.00;;;;;;;-4.53;74.69;96595.41;2065666;28;20045;-56
2024/01/22 02:46:38;;;;;;;3.80;1.50;;;;;;;-4.47;74.48;96595.50;2065609;28;20042;-57
2024/01/22 02:47:39;;;;;;;2.20;1.10;;;;;;;-4.51;74.83;96591.22;2064957;28;20051;-57
2024/01/22 02:48:41;;;;;;;4.13;1.58;;;;;;;-4.50;74.30;96592.94;2065645;28;20064;-57
2024/01/22 02:49:42;;;;;;;2.47;1.05;;;;;;;-4.52;74.16;96588.66;2065623;28;20034;-58
2024/01/22 02:50:43;;;;;;;4.13;1.30;;;;;;;-4.47;74.01;96585.38;2064673;28;20059;-55
2024/01/22 02:51:44;;;;;;;1.95;0.98;;;;;;;-4.37;73.68;96583.03;2065720;28;20539;-57
2024/01/22 02:52:45;;;;;;;3.47;1.20;;;;;;;-4.32;73.22;96584.84;2066243;28;20038;-55
2024/01/22 02:53:48;;;;;;;1.55;0.80;;;;;;;-4.10;71.96;96573.44;2067250;28;20061;-57
2024/01/22 02:54:49;;;;;;;1.90;1.08;;;;;;;-4.03;71.09;96569.34;2067150;28;20472;-56
2024/01/22 02:55:50;;;;;;;2.67;1.00;;;;;;;-3.98;70.52;96580.44;2067241;28;20054;-56
2024/01/22 02:56:51;;;;;;;3.40;0.85;;;;;;;-4.02;70.42;96568.50;2067113;28;20053;-56
2024/01/22 02:57:52;;;;;;;1.38;0.80;;;;;;;-4.02;70.50;96563.44;2067309;28;20419;-56
2024/01/22 02:58:53;;;;;;;2.60;1.08;;;;;;;-4.01;70.74;96553.31;2066818;28;20058;-56
2024/01/22 02:59:54;;;;;;;2.17;1.00;;;;;;;-4.00;70.77;96551.63;2066478;28;20058;-55
2024/01/22 03:00:55;;;;;;;1.77;1.05;;;;;;;-3.94;70.66;96556.81;2066604;28;20482;-55
2024/01/22 03:01:56;;;;;;;1.83;0.82;;;;;;;-3.88;70.04;96548.44;2057835;28;20059;-57
2024/01/22 03:02:57;;;;;;;1.88;0.82;;;;;;;-3.92;69.94;96549.25;2058446;28;20043;-56
2024/01/22 03:03:59;;;;;;;2.80;0.90;;;;;;;-3.87;69.94;96552.72;2067334;28;20054;-56
2024/01/22 03:05:00;;;;;;;1.25;0.73;;;;;;;-3.83;69.41;96550.22;2066478;28;20054;-56
2024/01/22 03:06:01;;;;;;;1.55;0.82;;;;;;;-3.78;69.03;96545.25;2066185;28;20051;-56
2024/01/22 03:07:02;;;;;;;3.55;1.10;;;;;;;-3.78;69.35;96553.72;2067186;28;20390;-56
2024/01/22 03:08:03;;;;;;;3.28;1.30;;;;;;;-3.84;69.60;96548.53;2067194;28;20406;-56
2024/01/22 03:09:05;;;;;;;2.72;1.25;;;;;;;-3.91;70.28;96546.72;2066565;28;20076;-56
2024/01/22 03:10:06;;;;;;;2.17;0.77;;;;;;;-3.81;69.72;96547.75;2065899;28;20081;-56
2024/01/22 03:11:08;;;;;;;2.33;1.15;;;;;;;-3.71;69.32;96544.53;2066840;28;20531;-56
2024/01/22 03:12:09;;;;;;;2.75;1.15;;;;;;;-3.61;68.79;96548.94;2065854;28;20487;-55
2024/01/22 03:13:10;;;;;;;1.98;0.98;;;;;;;-3.62;68.21;96544.66;2067167;28;20046;-55
2024/01/22 03:14:11;;;;;;;3.67;1.35;;;;;;;-3.58;68.13;96541.38;2066724;28;20050;-56
2024/01/22 03:15:12;;;;;;;2.58;0.65;;;;;;;-3.47;67.49;96548.31;2058535;28;20506;-55
2024/01/22 03:16:13;;;;;;;2.78;0.95;;;;;;;-3.35;66.80;96558.66;2058399;28;20042;-56
2024/01/22 03:17:14;;;;;;;4.60;0.93;;;;;;;-3.23;66.78;96548.69;2066467;28;20058;-56
2024/01/22 03:18:16;;;;;;;2.33;0.73;;;;;;;-3.16;65.77;96553.00;2067176;28;20046;-56
2024/01/22 03:19:17;;;;;;;1.02;0.50;;;;;;;-3.11;65.65;96560.72;2067071;28;20417;-56
2024/01/22 03:20:18;;;;;;;1.17;0.70;;;;;;;-3.08;64.99;96554.81;2066527;28;20046;-56
2024/01/22 03:21:19;;;;;;;1.40;0.68;;;;;;;-3.11;64.87;96559.03;2066915;28;20058;-56
2024/01/22 03:22:20;;;;;;;3.40;0.95;;;;;;;-3.05;64.51;96563.34;2066995;28;20486;-57
2024/01/22 03:23:21;;;;;;;3.63;0.93;;;;;;;-2.96;64.41;96552.47;2066385;28;20054;-55
2024/01/22 03:24:22;;;;;;;2.75;1.10;;;;;;;-2.96;64.76;96562.63;2067131;28;20038;-55
2024/01/22 03:25:23;;;;;;;1.95;0.70;;;;;;;-2.95;64.37;96549.09;2066902;28;20391;-55
2024/01/22 03:26:24;;;;;;;1.15;0.50;;;;;;;-2.94;64.38;96554.19;2066966;28;20045;-56
2024/01/22 03:27:25;;;;;;;1.30;0.77;;;;;;;-2.92;64.50;96555.06;2066890;28;20049;-56
2024/01/22 03:28:27;;;;;;;2.10;0.88;;;;;;;-2.92;64.26;96549.13;2067005;28;20398;-56
2024/01/22 03:29:28;;;;;;;2.95;0.85;;;;;;;-2.92;64.77;96544.88;2066354;28;20054;-56
2024/01/22 03:30:29;;;;;;;3.97;1.15;;;;;;;-2.90;64.15;96535.59;2066580;28;20065;-55
2024/01/22 03:31:30;;;;;;;2.15;0.88;;;;;;;-2.96;64.67;96525.38;2066699;28;20057;-57
2024/01/22 03:32:31;;;;;;;1.75;0.52;;;;;;;-2.97;65.10;96526.19;2066307;28;20047;-56
2024/01/22 03:33:32;;;;;;;3.70;0.82;;;;;;;-3.01;64.51;96529.53;2066977;28;20073;-56
2024/01/22 03:34:33;;;;;;;1.17;0.65;;;;;;;-3.00;64.83;96526.13;2066989;28;20050;-57
2024/01/22 03:35:34;;;;;;;1.42;0.80;;;;;;;-3.08;65.30;96525.19;2066158;28;20058;-57
2024/01/22 03:36:36;;;;;;;1.42;0.77;;;;;;;-3.16;66.03;96517.44;2066254;28;20066;-57
2024/01/22 03:37:37;;;;;;;2.33;0.88;;;;;;;-3.19;66.11;96525.03;2066038;28;20421;-56
2024/01/22 03:38:38;;;;;;;1.08;0.60;;;;;;;-3.22;66.42;96517.38;2066318;28;20054;-56
2024/01/22 03:39:40;;;;;;;3.90;0.80;;;;;;;-3.26;66.46;96520.72;2067003;28;20034;-56
2024/01/22 03:40:41;;;;;;;2.17;0.52;;;;;;;-3.21;66.47;96523.28;2058386;28;20479;-56
2024/01/22 03:41:42;;;;;;;2.92;1.10;;;;;;;-3.26;67.06;96518.16;2057194;28;20058;-55
2024/01/22 03:42:43;;;;;;;1.65;0.85;;;;;;;-3.22;66.62;96519.91;2066815;28;20055;-56
2024/01/22 03:43:44;;;;;;;2.47;1.20;;;;;;;-3.20;66.76;96512.31;2066798;28;20474;-56
2024/01/22 03:44:46;;;;;;;2.40;0.80;;;;;;;-3.23;66.48;96509.75;2066792;28;20061;-56
2024/01/22 03:45:47;;;;;;;3.17;1.02;;;;;;;-3.26;66.97;96502.03;2065997;28;20046;-55
2024/01/22 03:46:48;;;;;;;1.98;1.00;;;;;;;-3.26;66.75;96502.94;2066678;28;20053;-56
2024/01/22 03:47:49;;;;;;;1.90;0.70;;;;;;;-3.25;66.95;96504.63;2066756;28;20038;-56
2024/01/22 03:48:50;;;;;;;2.78;1.00;;;;;;;-3.24;66.70;96498.69;2066778;28;20046;-56
2024/01/22 03:49:51;;;;;;;2.30;0.90;;;;;;;-3.18;66.88;96492.84;2066853;28;20061;-55
2024/01/22 03:50:53;;;;;;;2.70;0.98;;;;;;;-3.22;66.98;96486.88;2066536;28;20054;-56
2024/01/22 03:51:54;;;;;;;1.25;0.70;;;;;;;-3.28;67.00;96473.25;2066263;28;20065;-57
2024/01/22 03:52:55;;;;;;;4.40;1.10;;;;;;;-3.07;66.06;96476.09;2066757;28;20046;-56
2024/01/22 03:53:56;;;;;;;3.80;1.40;;;;;;;-3.06;66.28;96477.78;2066988;28;20046;-57
2024/01/22 03:54:57;;;;;;;2.50;0.95;;;;;;;-3.01;65.93;96462.59;2066937;28;20478;-56
2024/01/22 03:55:58;;;;;;;2.13;0.70;;;;;;;-3.05;66.35;96455.75;2065954;28;20073;-56
2024/01/22 03:57:06;;;;;;;2.40;1.10;;;;;;;-2.90;65.68;96458.50;2058097;28;20047;-57
2024/01/22 03:58:07;;;;;;;2.42;0.88;;;;;;;-2.76;65.06;96456.97;2059190;28;20376;-56
2024/01/22 03:59:09;;;;;;;2.13;0.70;;;;;;;-2.77;64.75;96446.81;2066654;28;20057;-56
2024/01/22 04:00:11;;;;;;;2.58;0.50;;;;;;;-2.45;62.82;96460.72;2058084;28;20494;-57
2024/01/22 04:01:18;;;;;;;1.88;0.82;;;;;;;-2.32;62.48;96450.69;2058137;28;20541;-57
2024/01/22 04:02:19;;;;;;;5.20;1.10;;;;;;;-2.27;62.66;96460.09;2065757;28;20371;-56
2024/01/22 04:03:20;;;;;;;0.38;0.32;;;;;;;-2.30;61.84;96460.06;2065807;28;20050;-56
2024/01/22 04:04:21;;;;;;;2.10;0.85;;;;;;;-2.29;61.95;96453.25;2066283;28;20065;-56
2024/01/22 04:05:23;;;;;;;1.58;0.82;;;;;;;-2.29;62.42;96455.81;2066795;28;20487;-57
2024/01/22 04:06:24;;;;;;;2.90;1.00;;;;;;;-2.25;62.23;96455.84;2066049;28;20057;-57
2024/01/22 04:07:25;;;;;;;1.75;0.77;;;;;;;-2.34;62.45;96462.53;2066666;28;20034;-55
2024/01/22 04:08:26;;;;;;;1.50;0.80;;;;;;;-2.40;62.68;96459.94;2066772;28;20481;-57
2024/01/22 04:09:27;;;;;;;2.30;0.90;;;;;;;-2.40;62.79;96459.94;2066622;28;20046;-56
2024/01/22 04:10:28;;;;;;;2.40;0.80;;;;;;;-2.40;62.74;96454.84;2066010;28;20050;-57
2024/01/22 04:11:29;;;;;;;4.63;1.00;;;;;;;-2.36;62.76;96454.03;2066472;28;20038;-56
2024/01/22 04:12:30;;;;;;;1.95;0.80;;;;;;;-2.33;62.48;96454.06;2065927;28;20050;-56
2024/01/22 04:13:31;;;;;;;4.88;0.68;;;;;;;-2.29;62.58;96458.34;2066533;28;20042;-56
2024/01/22 04:14:32;;;;;;;2.28;0.70;;;;;;;-2.30;62.44;96456.63;2066693;28;20042;-57
2024/01/22 04:15:34;;;;;;;4.32;1.05;;;;;;;-2.26;61.77;96463.47;2066666;28;20042;-56
2024/01/22 04:16:35;;;;;;;1.98;0.82;;;;;;;-2.29;62.20;96468.53;2066237;28;20054;-56
2024/01/22 04:17:36;;;;;;;3.10;0.88;;;;;;;-2.36;63.66;96471.84;2065975;28;20065;-55
2024/01/22 04:18:38;;;;;;;3.47;0.95;;;;;;;-2.48;64.71;96481.06;2066531;28;20038;-56
2024/01/22 04:19:41;;;;;;;1.50;0.70;;;;;;;-2.63;65.41;96485.94;2057789;28;20046;-56
2024/01/22 04:20:42;;;;;;;1.08;0.60;;;;;;;-2.71;66.78;96485.00;2058270;28;20102;-56
2024/01/22 04:21:45;;;;;;;0.88;0.55;;;;;;;-2.75;66.46;96496.00;2066465;28;20053;-55
2024/01/22 04:22:46;;;;;;;1.38;0.80;;;;;;;-2.74;66.34;96487.50;2066593;28;20053;-57
2024/01/22 04:23:47;;;;;;;2.15;0.50;;;;;;;-2.69;66.70;96484.19;2066642;28;20058;-56
2024/01/22 04:24:48;;;;;;;1.00;0.60;;;;;;;-2.68;66.14;96492.66;2066108;28;20418;-55
2024/01/22 04:25:49;;;;;;;1.52;0.80;;;;;;;-2.69;65.50;96489.28;2066508;28;20062;-56
2024/01/22 04:26:50;;;;;;;1.17;0.70;;;;;;;-2.71;66.42;96498.56;2065999;28;20486;-56
2024/01/22 04:27:54;;;;;;;5.30;1.15;;;;;;;-2.74;66.34;96501.06;2066508;28;20050;-57
2024/01/22 04:28:55;;;;;;;1.50;0.47;;;;;;;-2.74;65.79;96502.78;2065902;28;20054;-55
2024/01/22 04:29:57;;;;;;;1.52;0.90;;;;;;;-2.72;66.69;96491.78;2066616;28;20046;-56
2024/01/22 04:30:58;;;;;;;2.45;0.88;;;;;;;-2.69;65.76;96496.06;2065681;28;20414;-55
2024/01/22 04:31:59;;;;;;;2.03;0.80;;;;;;;-2.71;66.13;96490.09;2066586;28;20042;-56
2024/01/22 04:33:00;;;;;;;2.42;0.80;;;;;;;-2.73;66.35;96481.59;2066228;28;20050;-56
2024/01/22 04:34:01;;;;;;;3.17;0.88;;;;;;;-2.73;66.07;96494.28;2057798;28;20055;-56
2024/01/22 04:35:04;;;;;;;2.47;0.90;;;;;;;-2.78;66.47;96498.47;2057789;28;20042;-55
2024/01/22 04:36:05;;;;;;;2.85;1.00;;;;;;;-2.83;65.84;96492.47;2066023;28;20059;-55
2024/01/22 04:37:06;;;;;;;3.63;0.90;;;;;;;-2.88;67.11;96489.88;2066390;28;20058;-57
2024/01/22 04:38:07;;;;;;;1.75;0.60;;;;;;;-2.92;66.98;96491.50;2066432;28;20414;-56
2024/01/22 04:39:08;;;;;;;2.63;0.70;;;;;;;-2.91;66.83;96495.78;2066412;28;20038;-53
2024/01/22 04:40:11;;;;;;;1.85;0.77;;;;;;;-2.91;67.49;96498.31;2066078;28;20057;-56
2024/01/22 04:41:12;;;;;;;2.40;0.80;;;;;;;-2.92;66.93;96493.22;2065812;28;20058;-56
2024/01/22 04:42:20;;;;;;;2.05;0.95;;;;;;;-2.93;66.75;96502.53;2065558;28;20057;-56
2024/01/22 04:43:21;;;;;;;2.17;0.70;;;;;;;-2.94;67.37;96505.03;2066439;28;20061;-57
2024/01/22 04:44:22;;;;;;;1.70;0.88;;;;;;;-2.94;67.37;96497.41;2066526;28;20489;-56
2024/01/22 04:45:23;;;;;;;1.58;0.63;;;;;;;-2.88;67.14;96500.06;2066538;28;20042;-56
2024/01/22 04:46:24;;;;;;;1.63;0.70;;;;;;;-2.83;66.53;96495.88;2065587;28;20042;-56
2024/01/22 04:47:25;;;;;;;1.95;0.80;;;;;;;-2.81;66.25;96499.28;2065894;28;20483;-56
2024/01/22 04:48:27;;;;;;;1.52;0.85;;;;;;;-2.70;66.03;96491.78;2066177;28;20046;-57